createdAt,value
2023-02-12T00:00:44.995Z,5.93
2023-02-12T00:03:12.898Z,5.88
2023-02-12T00:05:41.744Z,5.88
2023-02-12T00:08:11.193Z,5.79
2023-02-12T00:10:41.765Z,5.60
2023-02-12T00:13:09.508Z,5.55
2023-02-12T00:15:41.075Z,5.50
2023-02-12T00:18:09.002Z,5.51
2023-02-12T00:20:37.983Z,5.56
2023-02-12T00:23:06.172Z,5.61
2023-02-12T00:25:33.972Z,5.52
2023-02-12T00:28:01.628Z,5.54
2023-02-12T00:30:29.797Z,5.42
2023-02-12T00:32:58.805Z,5.46
2023-02-12T00:35:26.406Z,5.43
2023-02-12T00:37:54.005Z,5.47
2023-02-12T00:40:21.749Z,5.34
2023-02-12T00:42:49.324Z,5.34
2023-02-12T00:45:17.080Z,5.33
2023-02-12T00:47:44.766Z,5.35
2023-02-12T00:50:13.773Z,5.32
2023-02-12T00:52:41.346Z,5.34
2023-02-12T00:55:09.173Z,5.45
2023-02-12T00:57:36.733Z,5.42
2023-02-12T01:00:05.063Z,5.32
2023-02-12T01:02:32.688Z,5.21
2023-02-12T01:05:00.445Z,5.20
2023-02-12T01:07:29.396Z,5.15
2023-02-12T01:09:57.003Z,5.09
2023-02-12T01:12:24.610Z,5.12
2023-02-12T01:14:52.406Z,5.22
2023-02-12T01:17:20.028Z,5.25
2023-02-12T01:19:47.622Z,5.27
2023-02-12T01:22:15.441Z,5.28
2023-02-12T01:24:44.337Z,5.33
2023-02-12T01:27:11.861Z,5.31
2023-02-12T01:29:39.793Z,5.34
2023-02-12T01:32:07.446Z,5.24
2023-02-12T01:34:35.140Z,5.24
2023-02-12T01:37:02.736Z,5.22
2023-02-12T01:39:30.334Z,5.21
2023-02-12T01:41:59.233Z,5.11
2023-02-12T01:44:31.260Z,5.12
2023-02-12T01:47:00.393Z,5.13
2023-02-12T01:49:32.789Z,5.09
2023-02-12T01:52:06.301Z,5.12
2023-02-12T01:54:35.953Z,5.15
2023-02-12T01:57:07.212Z,5.18
2023-02-12T01:59:37.396Z,5.17
2023-02-12T02:02:05.985Z,5.21
2023-02-12T02:04:41.225Z,5.16
2023-02-12T02:07:10.912Z,5.09
2023-02-12T02:09:40.257Z,5.11
2023-02-12T02:12:27.197Z,5.14
2023-02-12T02:14:58.977Z,5.08
2023-02-12T02:17:48.004Z,5.15
2023-02-12T02:20:51.387Z,5.01
2023-02-12T02:23:48.715Z,5.11
2023-02-12T02:26:43.430Z,5.12
2023-02-12T02:29:55.370Z,4.97
2023-02-12T02:32:27.850Z,4.95
2023-02-12T02:35:01.870Z,5.09
2023-02-12T02:37:34.029Z,5.10
2023-02-12T02:40:10.686Z,4.99
2023-02-12T02:42:43.079Z,4.92
2023-02-12T02:45:16.477Z,4.93
2023-02-12T02:47:49.839Z,4.98
2023-02-12T02:50:21.012Z,4.92
2023-02-12T02:52:54.266Z,5.13
2023-02-12T02:55:25.328Z,5.13
2023-02-12T02:57:57.412Z,5.16
2023-02-12T03:00:29.575Z,5.06
2023-02-12T03:03:03.232Z,5.09
2023-02-12T03:05:34.503Z,4.92
2023-02-12T03:08:09.671Z,4.97
2023-02-12T03:10:41.744Z,5.07
2023-02-12T03:13:13.239Z,5.00
2023-02-12T03:15:45.963Z,5.00
2023-02-12T03:18:20.698Z,4.89
2023-02-12T03:20:52.989Z,4.95
2023-02-12T03:23:26.481Z,4.94
2023-02-12T03:25:58.981Z,4.91
2023-02-12T03:28:30.834Z,4.87
2023-02-12T03:31:09.197Z,4.82
2023-02-12T03:33:50.917Z,4.81
2023-02-12T03:36:30.758Z,4.76
2023-02-12T03:39:07.147Z,4.86
2023-02-12T03:41:41.553Z,4.83
2023-02-12T03:44:17.488Z,4.82
2023-02-12T03:46:51.797Z,4.84
2023-02-12T03:49:25.564Z,4.83
2023-02-12T03:51:53.901Z,4.83
2023-02-12T03:54:23.050Z,4.82
2023-02-12T03:56:55.183Z,4.76
2023-02-12T03:59:25.141Z,4.72
2023-02-12T04:01:54.960Z,4.72
2023-02-12T04:04:25.015Z,4.78
2023-02-12T04:06:54.794Z,4.78
2023-02-12T04:09:24.191Z,4.83
2023-02-12T04:12:05.980Z,4.81
2023-02-12T04:14:42.180Z,4.71
2023-02-12T04:17:18.642Z,4.70
2023-02-12T04:19:55.865Z,4.68
2023-02-12T04:22:33.904Z,4.64
2023-02-12T04:25:10.856Z,4.62
2023-02-12T04:27:43.657Z,4.63
2023-02-12T04:30:19.037Z,4.61
2023-02-12T04:32:50.278Z,4.63
2023-02-12T04:35:23.798Z,4.65
2023-02-12T04:37:56.243Z,4.59
2023-02-12T04:40:24.490Z,4.63
2023-02-12T04:42:54.317Z,4.65
2023-02-12T04:45:25.166Z,4.65
2023-02-12T04:47:53.074Z,4.53
2023-02-12T04:50:22.450Z,4.50
2023-02-12T04:52:50.198Z,4.55
2023-02-12T04:55:17.970Z,4.54
2023-02-12T04:57:45.755Z,4.54
2023-02-12T05:00:15.809Z,4.62
2023-02-12T05:02:43.460Z,4.64
2023-02-12T05:05:11.141Z,4.64
2023-02-12T05:07:40.215Z,4.68
2023-02-12T05:10:09.611Z,4.66
2023-02-12T05:12:37.168Z,4.66
2023-02-12T05:15:05.460Z,4.67
2023-02-12T05:17:33.225Z,4.68
2023-02-12T05:20:00.810Z,4.70
2023-02-12T05:22:28.483Z,4.61
2023-02-12T05:24:57.375Z,4.55
2023-02-12T05:27:24.914Z,4.45
2023-02-12T05:29:52.490Z,4.40
2023-02-12T05:32:20.113Z,4.41
2023-02-12T05:34:47.819Z,4.46
2023-02-12T05:37:15.619Z,4.48
2023-02-12T05:39:43.226Z,4.51
2023-02-12T05:42:12.206Z,4.54
2023-02-12T05:44:39.857Z,4.58
2023-02-12T05:47:07.368Z,4.53
2023-02-12T05:49:34.942Z,4.60
2023-02-12T05:52:02.491Z,4.59
2023-02-12T05:54:30.026Z,4.62
2023-02-12T05:56:57.555Z,4.53
2023-02-12T05:59:26.476Z,4.54
2023-02-12T06:01:54.418Z,4.56
2023-02-12T06:04:23.975Z,4.60
2023-02-12T06:06:52.311Z,4.67
2023-02-12T06:09:20.210Z,4.65
2023-02-12T06:11:47.895Z,4.69
2023-02-12T06:14:17.229Z,4.71
2023-02-12T06:16:48.321Z,4.75
2023-02-12T06:19:16.256Z,4.72
2023-02-12T06:21:43.990Z,4.77
2023-02-12T06:24:13.598Z,4.77
2023-02-12T06:26:41.396Z,4.69
2023-02-12T06:29:08.984Z,4.73
2023-02-12T06:31:38.258Z,4.75
2023-02-12T06:34:17.957Z,4.74
2023-02-12T06:36:47.021Z,4.78
2023-02-12T06:39:17.307Z,4.70
2023-02-12T06:41:45.459Z,4.66
2023-02-12T06:44:14.012Z,4.64
2023-02-12T06:46:41.793Z,4.62
2023-02-12T06:49:14.158Z,4.71
2023-02-12T06:51:42.370Z,4.79
2023-02-12T06:54:14.736Z,4.91
2023-02-12T06:56:42.268Z,4.95
2023-02-12T06:59:14.043Z,4.89
2023-02-12T07:01:41.909Z,4.96
2023-02-12T07:04:12.357Z,4.94
2023-02-12T07:06:40.167Z,5.01
2023-02-12T07:09:07.768Z,5.05
2023-02-12T07:11:38.343Z,5.10
2023-02-12T07:14:06.499Z,5.08
2023-02-12T07:16:34.193Z,5.13
2023-02-12T07:19:01.916Z,5.14
2023-02-12T07:21:31.948Z,5.11
2023-02-12T07:23:59.544Z,5.06
2023-02-12T07:26:27.092Z,4.95
2023-02-12T07:28:54.637Z,5.00
2023-02-12T07:31:24.349Z,5.10
2023-02-12T07:33:55.224Z,5.06
2023-02-12T07:36:23.172Z,5.03
2023-02-12T07:38:52.143Z,5.02
2023-02-12T07:41:21.394Z,5.09
2023-02-12T07:43:50.616Z,5.21
2023-02-12T07:46:21.686Z,5.23
2023-02-12T07:48:49.686Z,5.26
2023-02-12T07:51:19.171Z,5.24
2023-02-12T07:53:46.924Z,5.24
2023-02-12T07:56:18.131Z,5.31
2023-02-12T07:58:47.168Z,5.41
2023-02-12T08:01:18.205Z,5.45
2023-02-12T08:03:47.023Z,5.38
2023-02-12T08:06:16.732Z,5.47
2023-02-12T08:08:44.774Z,5.56
2023-02-12T08:11:14.249Z,5.64
2023-02-12T08:13:43.585Z,5.66
2023-02-12T08:16:13.273Z,5.76
2023-02-12T08:18:40.933Z,5.90
2023-02-12T08:21:09.859Z,6.05
2023-02-12T08:23:38.130Z,6.20
2023-02-12T08:26:11.437Z,6.05
2023-02-12T08:28:41.000Z,6.37
2023-02-12T08:31:12.195Z,6.23
2023-02-12T08:33:39.801Z,6.43
2023-02-12T08:36:10.397Z,6.44
2023-02-12T08:38:38.890Z,6.82
2023-02-12T08:41:07.879Z,6.90
2023-02-12T08:43:36.008Z,6.85
2023-02-12T08:46:05.336Z,6.87
2023-02-12T08:48:34.464Z,6.76
2023-02-12T08:51:06.994Z,6.81
2023-02-12T08:53:34.953Z,6.85
2023-02-12T08:56:02.622Z,6.79
2023-02-12T08:58:30.310Z,7.00
2023-02-12T09:00:57.976Z,7.21
2023-02-12T09:03:25.971Z,7.11
2023-02-12T09:05:55.257Z,7.45
2023-02-12T09:08:23.028Z,7.14
2023-02-12T09:10:50.578Z,7.47
2023-02-12T09:13:18.323Z,7.42
2023-02-12T09:15:46.316Z,7.11
2023-02-12T09:18:15.886Z,6.78
2023-02-12T09:20:45.519Z,7.13
2023-02-12T09:23:15.492Z,7.10
2023-02-12T09:25:44.574Z,7.13
2023-02-12T09:28:13.578Z,7.44
2023-02-12T09:30:42.081Z,7.30
2023-02-12T09:33:12.292Z,7.29
2023-02-12T09:35:40.429Z,7.13
2023-02-12T09:38:09.291Z,7.56
2023-02-12T09:40:48.326Z,7.57
2023-02-12T09:43:19.634Z,7.57
2023-02-12T09:45:57.786Z,7.40
2023-02-12T09:48:55.431Z,7.12
2023-02-12T09:51:23.816Z,7.42
2023-02-12T09:54:00.553Z,7.50
2023-02-12T09:56:29.556Z,7.38
2023-02-12T09:59:00.528Z,7.48
2023-02-12T10:01:28.975Z,7.62
2023-02-12T10:03:57.540Z,7.59
2023-02-12T10:06:27.774Z,7.55
2023-02-12T10:09:02.208Z,7.49
2023-02-12T10:11:54.722Z,7.46
2023-02-12T10:14:58.696Z,7.73
2023-02-12T10:17:36.896Z,7.75
2023-02-12T10:20:32.728Z,7.61
2023-02-12T10:23:11.255Z,7.95
2023-02-12T10:25:48.640Z,7.80
2023-02-12T10:28:21.591Z,7.91
2023-02-12T10:30:53.908Z,7.93
2023-02-12T10:33:28.098Z,7.98
2023-02-12T10:36:00.275Z,7.75
2023-02-12T10:38:32.417Z,7.77
2023-02-12T10:41:01.854Z,7.88
2023-02-12T10:43:31.937Z,8.10
2023-02-12T10:45:59.582Z,8.02
2023-02-12T10:48:32.539Z,8.04
2023-02-12T10:51:13.923Z,8.01
2023-02-12T10:53:43.522Z,8.05
2023-02-12T10:56:17.674Z,8.12
2023-02-12T10:58:57.529Z,8.26
2023-02-12T11:01:28.069Z,8.15
2023-02-12T11:03:56.868Z,8.46
2023-02-12T11:06:27.681Z,8.62
2023-02-12T11:08:56.300Z,8.61
2023-02-12T11:11:26.445Z,8.72
2023-02-12T11:14:03.794Z,8.70
2023-02-12T11:16:34.052Z,8.82
2023-02-12T11:19:05.707Z,8.51
2023-02-12T11:21:34.022Z,8.48
2023-02-12T11:24:23.914Z,8.62
2023-02-12T11:26:51.480Z,8.40
2023-02-12T11:29:24.477Z,8.81
2023-02-12T11:32:03.702Z,8.97
2023-02-12T11:34:31.813Z,8.82
2023-02-12T11:36:59.995Z,8.49
2023-02-12T11:39:29.865Z,8.73
2023-02-12T11:42:00.420Z,9.11
2023-02-12T11:44:33.311Z,8.67
2023-02-12T11:47:08.708Z,9.00
2023-02-12T11:49:42.204Z,8.83
2023-02-12T11:52:21.524Z,9.33
2023-02-12T11:54:51.413Z,9.08
2023-02-12T11:57:38.641Z,9.18
2023-02-12T12:00:15.253Z,9.17
2023-02-12T12:02:47.847Z,9.48
2023-02-12T12:05:19.409Z,9.43
2023-02-12T12:07:57.142Z,9.52
2023-02-12T12:10:35.503Z,9.59
2023-02-12T12:13:06.644Z,9.68
2023-02-12T12:15:56.915Z,9.40
2023-02-12T12:18:48.949Z,9.62
2023-02-12T12:21:25.756Z,9.24
2023-02-12T12:23:58.069Z,9.64
2023-02-12T12:26:28.707Z,9.40
2023-02-12T12:29:02.852Z,9.54
2023-02-12T12:31:35.778Z,9.10
2023-02-12T12:34:08.656Z,9.68
2023-02-12T12:37:03.252Z,9.39
2023-02-12T12:39:37.960Z,9.67
2023-02-12T12:42:45.577Z,9.75
2023-02-12T12:45:30.384Z,9.55
2023-02-12T12:48:16.168Z,9.38
2023-02-12T12:51:01.381Z,9.90
2023-02-12T12:53:43.538Z,10.03
2023-02-12T12:56:35.155Z,9.96
2023-02-12T12:59:36.812Z,9.83
2023-02-12T13:02:38.204Z,9.83
2023-02-12T13:05:57.996Z,9.89
2023-02-12T13:08:53.178Z,9.95
2023-02-12T13:11:36.522Z,10.05
2023-02-12T13:14:15.729Z,10.02
2023-02-12T13:16:50.672Z,9.94
2023-02-12T13:19:33.755Z,9.94
2023-02-12T13:22:08.853Z,9.68
2023-02-12T13:24:43.559Z,9.88
2023-02-12T13:27:16.376Z,9.96
2023-02-12T13:29:47.581Z,10.06
2023-02-12T13:32:23.094Z,9.99
2023-02-12T13:34:54.456Z,10.20
2023-02-12T13:37:35.226Z,10.24
2023-02-12T13:40:05.791Z,10.05
2023-02-12T13:42:44.465Z,10.10
2023-02-12T13:45:28.080Z,10.03
2023-02-12T13:48:07.308Z,10.02
2023-02-12T13:50:42.939Z,9.82
2023-02-12T13:53:21.503Z,10.06
2023-02-12T13:56:06.691Z,10.21
2023-02-12T13:58:48.156Z,10.25
2023-02-12T14:01:37.590Z,9.69
2023-02-12T14:04:33.208Z,9.87
2023-02-12T14:07:05.027Z,10.13
2023-02-12T14:09:38.711Z,10.32
2023-02-12T14:12:08.315Z,10.59
2023-02-12T14:14:38.592Z,10.43
2023-02-12T14:17:53.852Z,10.57
2023-02-12T14:20:27.534Z,10.72
2023-02-12T14:23:20.112Z,10.81
2023-02-12T14:25:57.670Z,10.93
2023-02-12T14:28:30.911Z,11.05
2023-02-12T14:31:30.051Z,10.83
2023-02-12T14:34:31.000Z,10.64
2023-02-12T14:37:13.620Z,10.77
2023-02-12T14:39:41.255Z,11.26
2023-02-12T14:42:55.568Z,11.38
2023-02-12T14:45:34.952Z,11.69
2023-02-12T14:48:03.777Z,11.53
2023-02-12T14:50:39.445Z,11.58
2023-02-12T14:53:28.995Z,11.19
2023-02-12T14:55:58.264Z,11.36
2023-02-12T14:58:30.668Z,11.15
2023-02-12T15:01:01.211Z,11.19
2023-02-12T15:03:35.911Z,11.35
2023-02-12T15:06:08.684Z,11.36
2023-02-12T15:08:44.362Z,10.99
2023-02-12T15:11:25.965Z,10.82
2023-02-12T15:13:58.672Z,11.04
2023-02-12T15:16:35.503Z,11.06
2023-02-12T15:19:13.365Z,10.76
2023-02-12T15:21:41.951Z,10.54
2023-02-12T15:24:11.427Z,10.50
2023-02-12T15:26:42.684Z,10.30
2023-02-12T15:29:22.383Z,10.28
2023-02-12T15:31:55.993Z,10.10
2023-02-12T15:34:26.319Z,10.20
2023-02-12T15:36:56.200Z,9.75
2023-02-12T15:39:25.806Z,9.88
2023-02-12T15:41:53.439Z,10.09
2023-02-12T15:44:29.527Z,10.02
2023-02-12T15:47:03.998Z,9.67
2023-02-12T15:49:35.238Z,9.94
2023-02-12T15:52:06.036Z,9.78
2023-02-12T15:54:34.033Z,9.96
2023-02-12T15:57:02.852Z,9.48
2023-02-12T15:59:31.850Z,9.41
2023-02-12T16:02:03.257Z,9.88
2023-02-12T16:04:33.589Z,9.77
2023-02-12T16:07:02.430Z,9.51
2023-02-12T16:09:32.682Z,9.66
2023-02-12T16:12:03.197Z,9.77
2023-02-12T16:14:40.837Z,9.62
2023-02-12T16:17:22.105Z,9.62
2023-02-12T16:19:58.005Z,9.61
2023-02-12T16:22:29.657Z,9.47
2023-02-12T16:24:57.802Z,9.37
2023-02-12T16:27:28.343Z,8.96
2023-02-12T16:29:59.464Z,8.74
2023-02-12T16:32:38.326Z,8.56
2023-02-12T16:35:25.135Z,8.41
2023-02-12T16:37:56.319Z,7.95
2023-02-12T16:40:30.940Z,8.20
2023-02-12T16:43:04.176Z,8.08
2023-02-12T16:45:38.664Z,7.85
2023-02-12T16:48:17.212Z,7.84
2023-02-12T16:50:49.183Z,7.61
2023-02-12T16:53:34.343Z,7.49
2023-02-12T16:56:04.787Z,7.40
2023-02-12T16:58:32.565Z,7.28
2023-02-12T17:01:04.345Z,7.01
2023-02-12T17:03:32.497Z,6.91
2023-02-12T17:06:00.258Z,6.85
2023-02-12T17:08:27.827Z,6.95
2023-02-12T17:10:55.357Z,6.85
2023-02-12T17:13:22.956Z,6.82
2023-02-12T17:15:55.340Z,6.63
2023-02-12T17:18:25.180Z,6.50
2023-02-12T17:20:55.886Z,6.36
2023-02-12T17:23:24.613Z,6.27
2023-02-12T17:25:52.489Z,6.22
2023-02-12T17:28:20.878Z,6.16
2023-02-12T17:30:48.490Z,6.09
2023-02-12T17:33:17.067Z,5.98
2023-02-12T17:35:46.387Z,5.89
2023-02-12T17:38:14.146Z,5.69
2023-02-12T17:40:41.779Z,5.55
2023-02-12T17:43:09.559Z,5.53
2023-02-12T17:45:42.711Z,5.37
2023-02-12T17:48:10.523Z,5.41
2023-02-12T17:50:38.501Z,5.51
2023-02-12T17:53:07.963Z,5.28
2023-02-12T17:55:39.506Z,5.30
2023-02-12T17:58:08.199Z,5.28
2023-02-12T18:00:35.835Z,5.17
2023-02-12T18:03:03.439Z,5.14
2023-02-12T18:05:31.016Z,5.06
2023-02-12T18:07:58.653Z,5.06
2023-02-12T18:10:27.602Z,4.93
2023-02-12T18:12:55.230Z,4.86
2023-02-12T18:15:23.517Z,4.82
2023-02-12T18:17:51.190Z,4.81
2023-02-12T18:20:19.170Z,4.76
2023-02-12T18:22:47.295Z,4.58
2023-02-12T18:25:15.102Z,4.46
2023-02-12T18:27:44.254Z,4.45
2023-02-12T18:30:12.686Z,4.51
2023-02-12T18:32:40.273Z,4.39
2023-02-12T18:35:09.137Z,4.46
2023-02-12T18:37:36.965Z,4.55
2023-02-12T18:40:04.881Z,4.50
2023-02-12T18:42:33.266Z,4.59
2023-02-12T18:45:02.299Z,4.54
2023-02-12T18:47:29.932Z,4.77
2023-02-12T18:49:58.170Z,4.84
2023-02-12T18:52:26.148Z,4.81
2023-02-12T18:54:53.760Z,4.82
2023-02-12T18:57:21.513Z,4.70
2023-02-12T18:59:49.171Z,4.98
2023-02-12T19:02:18.390Z,4.98
2023-02-12T19:04:46.012Z,5.09
2023-02-12T19:07:13.654Z,5.14
2023-02-12T19:09:41.587Z,4.97
2023-02-12T19:12:09.234Z,5.25
2023-02-12T19:14:36.911Z,5.10
2023-02-12T19:17:04.702Z,4.78
2023-02-12T19:19:34.003Z,4.66
2023-02-12T19:22:01.736Z,4.58
2023-02-12T19:24:44.392Z,4.33
2023-02-12T19:27:13.744Z,4.39
2023-02-12T19:29:41.427Z,4.33
2023-02-12T19:32:09.221Z,4.48
2023-02-12T19:34:38.765Z,4.59
2023-02-12T19:37:08.255Z,4.40
2023-02-12T19:39:36.331Z,4.37
2023-02-12T19:42:04.055Z,4.33
2023-02-12T19:44:31.800Z,4.41
2023-02-12T19:46:59.523Z,4.42
2023-02-12T19:49:28.681Z,4.20
2023-02-12T19:51:57.779Z,4.30
2023-02-12T19:54:26.050Z,4.54
2023-02-12T19:56:55.182Z,4.53
2023-02-12T19:59:25.267Z,4.31
2023-02-12T20:01:53.093Z,4.45
2023-02-12T20:04:22.793Z,4.46
2023-02-12T20:06:50.833Z,4.23
2023-02-12T20:09:21.438Z,4.30
2023-02-12T20:11:50.099Z,4.38
2023-02-12T20:14:20.754Z,4.48
2023-02-12T20:16:48.399Z,4.31
2023-02-12T20:19:18.821Z,4.40
2023-02-12T20:21:48.904Z,4.40
2023-02-12T20:24:16.730Z,4.36
2023-02-12T20:26:45.875Z,4.25
2023-02-12T20:29:13.672Z,4.23
2023-02-12T20:31:41.441Z,4.26
2023-02-12T20:34:12.734Z,4.22
2023-02-12T20:36:43.197Z,4.16
2023-02-12T20:39:13.389Z,4.01
2023-02-12T20:41:42.280Z,4.07
2023-02-12T20:44:14.357Z,4.17
2023-02-12T20:46:42.579Z,4.12
2023-02-12T20:49:12.977Z,3.97
2023-02-12T20:51:41.010Z,4.06
2023-02-12T20:54:08.636Z,3.95
2023-02-12T20:56:38.645Z,3.95
2023-02-12T20:59:07.556Z,3.70
2023-02-12T21:01:38.568Z,3.68
2023-02-12T21:04:08.578Z,3.69
2023-02-12T21:06:36.663Z,3.68
2023-02-12T21:09:04.531Z,3.71
2023-02-12T21:11:32.195Z,3.65
2023-02-12T21:14:20.794Z,3.63
2023-02-12T21:16:49.659Z,3.50
2023-02-12T21:19:18.162Z,3.58
2023-02-12T21:21:46.046Z,3.61
2023-02-12T21:24:16.331Z,3.60
2023-02-12T21:26:44.361Z,3.67
2023-02-12T21:29:12.128Z,3.59
2023-02-12T21:31:42.038Z,3.55
2023-02-12T21:34:15.224Z,3.62
2023-02-12T21:36:44.996Z,3.68
2023-02-12T21:39:14.143Z,3.60
2023-02-12T21:41:43.942Z,3.51
2023-02-12T21:44:14.600Z,3.39
2023-02-12T21:46:42.907Z,3.16
2023-02-12T21:49:12.810Z,3.03
2023-02-12T21:51:42.301Z,3.02
2023-02-12T21:54:12.371Z,3.12
2023-02-12T21:56:41.437Z,3.13
2023-02-12T21:59:09.996Z,3.17
2023-02-12T22:01:42.276Z,3.26
2023-02-12T22:04:10.708Z,3.26
2023-02-12T22:06:42.624Z,3.35
2023-02-12T22:09:12.179Z,3.32
2023-02-12T22:11:41.381Z,3.26
2023-02-12T22:14:09.918Z,3.32
2023-02-12T22:16:38.887Z,3.45
2023-02-12T22:19:06.559Z,3.48
2023-02-12T22:21:37.217Z,3.35
2023-02-12T22:24:09.283Z,3.21
2023-02-12T22:26:37.442Z,3.04
2023-02-12T22:29:09.150Z,2.90
2023-02-12T22:31:39.173Z,3.02
2023-02-12T22:34:09.084Z,3.16
2023-02-12T22:36:38.529Z,3.15
2023-02-12T22:39:07.730Z,3.24
2023-02-12T22:41:35.905Z,3.07
2023-02-12T22:44:05.034Z,2.94
2023-02-12T22:46:33.156Z,2.97
2023-02-12T22:49:01.281Z,2.87
2023-02-12T22:51:30.976Z,2.83
2023-02-12T22:53:59.447Z,2.82
2023-02-12T22:56:28.470Z,2.90
2023-02-12T22:58:57.048Z,2.91
2023-02-12T23:01:25.071Z,2.91
2023-02-12T23:03:53.014Z,2.88
2023-02-12T23:06:23.156Z,2.93
2023-02-12T23:08:51.879Z,2.96
2023-02-12T23:11:19.921Z,2.90
2023-02-12T23:13:48.903Z,2.88
2023-02-12T23:16:16.563Z,2.78
2023-02-12T23:18:44.232Z,2.72
2023-02-12T23:21:12.111Z,2.67
2023-02-12T23:23:39.748Z,2.53
2023-02-12T23:26:07.661Z,2.32
2023-02-12T23:28:35.509Z,2.24
2023-02-12T23:31:04.619Z,2.14
2023-02-12T23:33:32.345Z,2.14
2023-02-12T23:36:00.216Z,2.17
2023-02-12T23:38:27.822Z,2.03
2023-02-12T23:40:55.643Z,2.02
2023-02-12T23:43:23.482Z,1.96
2023-02-12T23:45:51.036Z,1.96
2023-02-12T23:48:20.063Z,2.01
2023-02-12T23:50:49.800Z,2.03
2023-02-12T23:53:18.969Z,2.01
2023-02-12T23:55:46.823Z,2.01
2023-02-12T23:58:14.348Z,1.78
